sensor_id;sensor_type;location;lat;lon;timestamp;P1;durP1;ratioP1;P2;durP2;ratioP2
61741;SDS011;47650;49.848;9.620;2023-03-23T00:01:14;2.38;;;1.50;;
61741;SDS011;47650;49.848;9.620;2023-03-23T00:03:46;3.40;;;1.58;;
61741;SDS011;47650;49.848;9.620;2023-03-23T00:06:14;2.25;;;1.55;;
61741;SDS011;47650;49.848;9.620;2023-03-23T00:08:47;5.05;;;1.60;;
61741;SDS011;47650;49.848;9.620;2023-03-23T00:11:21;3.30;;;1.70;;
61741;SDS011;47650;49.848;9.620;2023-03-23T00:13:55;2.58;;;1.40;;
61741;SDS011;47650;49.848;9.620;2023-03-23T00:16:29;2.67;;;1.58;;
61741;SDS011;47650;49.848;9.620;2023-03-23T00:19:01;2.30;;;1.42;;
61741;SDS011;47650;49.848;9.620;2023-03-23T00:21:34;2.03;;;1.58;;
61741;SDS011;47650;49.848;9.620;2023-03-23T00:24:04;2.25;;;1.15;;
61741;SDS011;47650;49.848;9.620;2023-03-23T00:26:32;2.50;;;1.50;;
61741;SDS011;47650;49.848;9.620;2023-03-23T00:29:01;3.17;;;1.50;;
61741;SDS011;47650;49.848;9.620;2023-03-23T00:31:30;5.03;;;1.85;;
61741;SDS011;47650;49.848;9.620;2023-03-23T00:34:01;2.08;;;1.38;;
61741;SDS011;47650;49.848;9.620;2023-03-23T00:36:29;1.75;;;1.40;;
61741;SDS011;47650;49.848;9.620;2023-03-23T00:39:02;2.30;;;1.50;;
61741;SDS011;47650;49.848;9.620;2023-03-23T00:41:38;2.67;;;1.50;;
61741;SDS011;47650;49.848;9.620;2023-03-23T00:44:04;1.75;;;1.27;;
61741;SDS011;47650;49.848;9.620;2023-03-23T00:46:29;2.72;;;1.30;;
61741;SDS011;47650;49.848;9.620;2023-03-23T00:48:55;2.25;;;1.42;;
61741;SDS011;47650;49.848;9.620;2023-03-23T00:51:21;2.13;;;1.58;;
61741;SDS011;47650;49.848;9.620;2023-03-23T00:53:48;3.28;;;1.73;;
61741;SDS011;47650;49.848;9.620;2023-03-23T00:56:14;3.38;;;1.50;;
61741;SDS011;47650;49.848;9.620;2023-03-23T00:58:43;3.25;;;2.17;;
61741;SDS011;47650;49.848;9.620;2023-03-23T01:01:08;1.85;;;1.40;;
61741;SDS011;47650;49.848;9.620;2023-03-23T01:03:34;3.10;;;1.98;;
61741;SDS011;47650;49.848;9.620;2023-03-23T01:06:04;2.20;;;1.58;;
61741;SDS011;47650;49.848;9.620;2023-03-23T01:08:33;2.55;;;1.45;;
61741;SDS011;47650;49.848;9.620;2023-03-23T01:11:03;2.22;;;1.40;;
61741;SDS011;47650;49.848;9.620;2023-03-23T01:13:30;2.38;;;1.80;;
61741;SDS011;47650;49.848;9.620;2023-03-23T01:15:58;2.28;;;1.63;;
61741;SDS011;47650;49.848;9.620;2023-03-23T01:18:25;3.72;;;1.73;;
61741;SDS011;47650;49.848;9.620;2023-03-23T01:20:50;2.45;;;1.40;;
61741;SDS011;47650;49.848;9.620;2023-03-23T01:23:17;3.60;;;1.50;;
61741;SDS011;47650;49.848;9.620;2023-03-23T01:25:43;2.10;;;1.45;;
61741;SDS011;47650;49.848;9.620;2023-03-23T01:28:10;2.15;;;1.50;;
61741;SDS011;47650;49.848;9.620;2023-03-23T01:30:36;3.00;;;1.75;;
61741;SDS011;47650;49.848;9.620;2023-03-23T01:33:03;1.98;;;1.63;;
61741;SDS011;47650;49.848;9.620;2023-03-23T01:35:29;3.53;;;1.58;;
61741;SDS011;47650;49.848;9.620;2023-03-23T01:37:54;4.30;;;1.67;;
61741;SDS011;47650;49.848;9.620;2023-03-23T01:40:22;5.60;;;1.80;;
61741;SDS011;47650;49.848;9.620;2023-03-23T01:42:50;2.15;;;1.45;;
61741;SDS011;47650;49.848;9.620;2023-03-23T01:45:23;2.42;;;1.30;;
61741;SDS011;47650;49.848;9.620;2023-03-23T01:48:01;1.75;;;1.38;;
61741;SDS011;47650;49.848;9.620;2023-03-23T01:50:34;3.88;;;1.70;;
61741;SDS011;47650;49.848;9.620;2023-03-23T01:53:07;1.73;;;1.33;;
61741;SDS011;47650;49.848;9.620;2023-03-23T01:55:35;1.35;;;1.20;;
61741;SDS011;47650;49.848;9.620;2023-03-23T01:58:03;2.83;;;1.40;;
61741;SDS011;47650;49.848;9.620;2023-03-23T02:00:31;3.67;;;1.60;;
61741;SDS011;47650;49.848;9.620;2023-03-23T02:02:56;1.77;;;1.30;;
61741;SDS011;47650;49.848;9.620;2023-03-23T02:05:30;3.97;;;1.42;;
61741;SDS011;47650;49.848;9.620;2023-03-23T02:08:00;1.75;;;1.42;;
61741;SDS011;47650;49.848;9.620;2023-03-23T02:10:30;2.30;;;1.40;;
61741;SDS011;47650;49.848;9.620;2023-03-23T02:12:59;3.17;;;1.50;;
61741;SDS011;47650;49.848;9.620;2023-03-23T02:15:28;2.40;;;1.30;;
61741;SDS011;47650;49.848;9.620;2023-03-23T02:18:19;2.17;;;1.45;;
61741;SDS011;47650;49.848;9.620;2023-03-23T02:32:10;2.65;;;1.80;;
61741;SDS011;47650;49.848;9.620;2023-03-23T02:40:55;1.63;;;1.10;;
61741;SDS011;47650;49.848;9.620;2023-03-23T02:43:06;1.83;;;1.67;;
61741;SDS011;47650;49.848;9.620;2023-03-23T02:45:34;5.20;;;1.40;;
61741;SDS011;47650;49.848;9.620;2023-03-23T02:48:01;1.38;;;1.00;;
61741;SDS011;47650;49.848;9.620;2023-03-23T02:50:28;1.70;;;1.33;;
61741;SDS011;47650;49.848;9.620;2023-03-23T02:52:55;3.03;;;1.58;;
61741;SDS011;47650;49.848;9.620;2023-03-23T02:55:24;3.08;;;1.42;;
61741;SDS011;47650;49.848;9.620;2023-03-23T02:57:54;2.25;;;1.33;;
61741;SDS011;47650;49.848;9.620;2023-03-23T03:00:22;3.20;;;1.30;;
61741;SDS011;47650;49.848;9.620;2023-03-23T03:02:51;2.25;;;1.38;;
61741;SDS011;47650;49.848;9.620;2023-03-23T03:10:50;2.60;;;1.23;;
61741;SDS011;47650;49.848;9.620;2023-03-23T03:13:31;1.63;;;1.40;;
61741;SDS011;47650;49.848;9.620;2023-03-23T03:19:25;1.40;;;1.30;;
61741;SDS011;47650;49.848;9.620;2023-03-23T03:22:02;2.83;;;1.30;;
61741;SDS011;47650;49.848;9.620;2023-03-23T03:24:31;1.50;;;1.10;;
61741;SDS011;47650;49.848;9.620;2023-03-23T03:26:58;2.67;;;1.30;;
61741;SDS011;47650;49.848;9.620;2023-03-23T03:29:32;2.10;;;1.25;;
61741;SDS011;47650;49.848;9.620;2023-03-23T03:32:01;1.27;;;1.05;;
61741;SDS011;47650;49.848;9.620;2023-03-23T03:34:30;3.30;;;1.13;;
61741;SDS011;47650;49.848;9.620;2023-03-23T03:36:58;4.63;;;1.50;;
61741;SDS011;47650;49.848;9.620;2023-03-23T03:39:24;3.08;;;1.30;;
61741;SDS011;47650;49.848;9.620;2023-03-23T03:41:51;1.73;;;1.13;;
61741;SDS011;47650;49.848;9.620;2023-03-23T03:44:16;1.52;;;1.20;;
61741;SDS011;47650;49.848;9.620;2023-03-23T03:46:42;2.17;;;1.00;;
61741;SDS011;47650;49.848;9.620;2023-03-23T03:49:09;1.60;;;1.20;;
61741;SDS011;47650;49.848;9.620;2023-03-23T03:51:37;1.35;;;0.98;;
61741;SDS011;47650;49.848;9.620;2023-03-23T03:54:04;1.92;;;1.20;;
61741;SDS011;47650;49.848;9.620;2023-03-23T03:56:29;1.30;;;1.20;;
61741;SDS011;47650;49.848;9.620;2023-03-23T03:59:02;1.63;;;1.00;;
61741;SDS011;47650;49.848;9.620;2023-03-23T04:01:29;3.35;;;1.25;;
61741;SDS011;47650;49.848;9.620;2023-03-23T04:03:54;1.30;;;1.20;;
61741;SDS011;47650;49.848;9.620;2023-03-23T04:06:23;2.67;;;1.00;;
61741;SDS011;47650;49.848;9.620;2023-03-23T04:08:48;4.00;;;1.23;;
61741;SDS011;47650;49.848;9.620;2023-03-23T04:11:15;3.40;;;1.25;;
61741;SDS011;47650;49.848;9.620;2023-03-23T04:16:08;2.08;;;1.25;;
61741;SDS011;47650;49.848;9.620;2023-03-23T04:18:34;1.83;;;1.25;;
61741;SDS011;47650;49.848;9.620;2023-03-23T04:21:15;2.53;;;1.58;;
61741;SDS011;47650;49.848;9.620;2023-03-23T04:23:48;2.33;;;1.42;;
61741;SDS011;47650;49.848;9.620;2023-03-23T04:26:13;3.13;;;1.20;;
61741;SDS011;47650;49.848;9.620;2023-03-23T04:28:39;2.00;;;1.27;;
61741;SDS011;47650;49.848;9.620;2023-03-23T04:31:06;2.90;;;1.40;;
61741;SDS011;47650;49.848;9.620;2023-03-23T04:33:37;2.35;;;1.30;;
61741;SDS011;47650;49.848;9.620;2023-03-23T04:36:15;3.70;;;1.60;;
61741;SDS011;47650;49.848;9.620;2023-03-23T04:41:08;3.38;;;1.38;;
61741;SDS011;47650;49.848;9.620;2023-03-23T04:43:34;2.05;;;1.33;;
61741;SDS011;47650;49.848;9.620;2023-03-23T04:46:07;2.10;;;1.27;;
61741;SDS011;47650;49.848;9.620;2023-03-23T04:48:41;2.05;;;1.30;;
61741;SDS011;47650;49.848;9.620;2023-03-23T04:51:15;2.30;;;1.10;;
61741;SDS011;47650;49.848;9.620;2023-03-23T04:53:42;2.58;;;1.20;;
61741;SDS011;47650;49.848;9.620;2023-03-23T04:56:08;2.08;;;1.40;;
61741;SDS011;47650;49.848;9.620;2023-03-23T04:58:33;2.50;;;1.48;;
61741;SDS011;47650;49.848;9.620;2023-03-23T05:01:00;4.38;;;1.45;;
61741;SDS011;47650;49.848;9.620;2023-03-23T05:03:29;5.13;;;1.75;;
61741;SDS011;47650;49.848;9.620;2023-03-23T05:06:00;3.35;;;1.60;;
61741;SDS011;47650;49.848;9.620;2023-03-23T05:08:27;3.97;;;1.70;;
61741;SDS011;47650;49.848;9.620;2023-03-23T05:11:00;4.78;;;1.73;;
61741;SDS011;47650;49.848;9.620;2023-03-23T05:13:34;2.78;;;1.90;;
61741;SDS011;47650;49.848;9.620;2023-03-23T05:16:03;3.80;;;1.55;;
61741;SDS011;47650;49.848;9.620;2023-03-23T05:18:29;3.03;;;1.77;;
61741;SDS011;47650;49.848;9.620;2023-03-23T05:20:59;2.67;;;2.05;;
61741;SDS011;47650;49.848;9.620;2023-03-23T05:23:27;5.60;;;2.20;;
61741;SDS011;47650;49.848;9.620;2023-03-23T05:25:56;3.30;;;2.28;;
61741;SDS011;47650;49.848;9.620;2023-03-23T05:28:25;4.35;;;1.90;;
61741;SDS011;47650;49.848;9.620;2023-03-23T05:30:52;3.95;;;2.40;;
61741;SDS011;47650;49.848;9.620;2023-03-23T05:33:18;2.65;;;2.00;;
61741;SDS011;47650;49.848;9.620;2023-03-23T05:35:45;2.50;;;2.00;;
61741;SDS011;47650;49.848;9.620;2023-03-23T05:38:20;3.20;;;2.30;;
61741;SDS011;47650;49.848;9.620;2023-03-23T05:40:47;6.35;;;2.50;;
61741;SDS011;47650;49.848;9.620;2023-03-23T05:43:14;4.57;;;2.63;;
61741;SDS011;47650;49.848;9.620;2023-03-23T05:45:44;3.67;;;2.90;;
61741;SDS011;47650;49.848;9.620;2023-03-23T05:48:10;5.05;;;2.65;;
61741;SDS011;47650;49.848;9.620;2023-03-23T05:50:38;4.15;;;2.88;;
61741;SDS011;47650;49.848;9.620;2023-03-23T05:53:05;4.15;;;2.53;;
61741;SDS011;47650;49.848;9.620;2023-03-23T05:55:38;4.88;;;3.45;;
61741;SDS011;47650;49.848;9.620;2023-03-23T05:58:04;4.70;;;3.47;;
61741;SDS011;47650;49.848;9.620;2023-03-23T06:00:33;4.85;;;3.25;;
61741;SDS011;47650;49.848;9.620;2023-03-23T06:02:59;7.35;;;3.58;;
61741;SDS011;47650;49.848;9.620;2023-03-23T06:05:28;3.40;;;2.65;;
61741;SDS011;47650;49.848;9.620;2023-03-23T06:07:54;4.63;;;2.85;;
61741;SDS011;47650;49.848;9.620;2023-03-23T06:10:20;3.22;;;2.78;;
61741;SDS011;47650;49.848;9.620;2023-03-23T06:12:47;4.90;;;4.03;;
61741;SDS011;47650;49.848;9.620;2023-03-23T06:15:15;4.90;;;3.10;;
61741;SDS011;47650;49.848;9.620;2023-03-23T06:17:40;5.47;;;3.25;;
61741;SDS011;47650;49.848;9.620;2023-03-23T06:20:06;3.08;;;2.58;;
61741;SDS011;47650;49.848;9.620;2023-03-23T06:22:35;6.50;;;3.15;;
61741;SDS011;47650;49.848;9.620;2023-03-23T06:25:09;6.55;;;3.10;;
61741;SDS011;47650;49.848;9.620;2023-03-23T06:27:38;4.47;;;3.15;;
61741;SDS011;47650;49.848;9.620;2023-03-23T06:30:04;5.57;;;3.90;;
61741;SDS011;47650;49.848;9.620;2023-03-23T06:32:32;11.27;;;5.40;;
61741;SDS011;47650;49.848;9.620;2023-03-23T06:34:58;7.60;;;6.43;;
61741;SDS011;47650;49.848;9.620;2023-03-23T06:37:24;7.30;;;6.15;;
61741;SDS011;47650;49.848;9.620;2023-03-23T06:39:51;7.82;;;5.90;;
61741;SDS011;47650;49.848;9.620;2023-03-23T06:42:19;7.38;;;5.40;;
61741;SDS011;47650;49.848;9.620;2023-03-23T06:44:44;6.57;;;5.03;;
61741;SDS011;47650;49.848;9.620;2023-03-23T06:47:10;5.85;;;4.32;;
61741;SDS011;47650;49.848;9.620;2023-03-23T06:49:35;5.45;;;4.93;;
61741;SDS011;47650;49.848;9.620;2023-03-23T06:52:02;6.10;;;4.70;;
61741;SDS011;47650;49.848;9.620;2023-03-23T06:54:33;4.32;;;3.88;;
61741;SDS011;47650;49.848;9.620;2023-03-23T06:57:00;6.13;;;4.47;;
61741;SDS011;47650;49.848;9.620;2023-03-23T06:59:26;5.47;;;4.70;;
61741;SDS011;47650;49.848;9.620;2023-03-23T07:01:57;5.65;;;3.53;;
61741;SDS011;47650;49.848;9.620;2023-03-23T07:04:22;3.70;;;3.22;;
61741;SDS011;47650;49.848;9.620;2023-03-23T07:06:49;5.70;;;4.80;;
61741;SDS011;47650;49.848;9.620;2023-03-23T07:09:14;6.68;;;4.75;;
61741;SDS011;47650;49.848;9.620;2023-03-23T07:11:40;6.85;;;5.68;;
61741;SDS011;47650;49.848;9.620;2023-03-23T07:14:07;7.15;;;5.78;;
61741;SDS011;47650;49.848;9.620;2023-03-23T07:16:35;7.18;;;5.72;;
61741;SDS011;47650;49.848;9.620;2023-03-23T07:19:02;10.00;;;7.72;;
61741;SDS011;47650;49.848;9.620;2023-03-23T07:21:28;12.45;;;7.18;;
61741;SDS011;47650;49.848;9.620;2023-03-23T07:23:53;10.88;;;7.55;;
61741;SDS011;47650;49.848;9.620;2023-03-23T07:26:20;10.02;;;7.55;;
61741;SDS011;47650;49.848;9.620;2023-03-23T07:28:58;12.68;;;7.72;;
61741;SDS011;47650;49.848;9.620;2023-03-23T07:31:23;13.18;;;7.60;;
61741;SDS011;47650;49.848;9.620;2023-03-23T07:33:49;9.20;;;8.25;;
61741;SDS011;47650;49.848;9.620;2023-03-23T07:36:14;12.52;;;8.05;;
61741;SDS011;47650;49.848;9.620;2023-03-23T07:38:41;12.70;;;8.23;;
61741;SDS011;47650;49.848;9.620;2023-03-23T07:41:07;10.98;;;7.55;;
61741;SDS011;47650;49.848;9.620;2023-03-23T07:43:32;11.60;;;7.00;;
61741;SDS011;47650;49.848;9.620;2023-03-23T07:45:57;15.55;;;8.73;;
61741;SDS011;47650;49.848;9.620;2023-03-23T07:48:23;13.48;;;7.55;;
61741;SDS011;47650;49.848;9.620;2023-03-23T07:50:49;11.63;;;7.55;;
61741;SDS011;47650;49.848;9.620;2023-03-23T07:53:16;17.23;;;8.35;;
61741;SDS011;47650;49.848;9.620;2023-03-23T07:55:43;14.52;;;9.13;;
61741;SDS011;47650;49.848;9.620;2023-03-23T07:58:09;13.75;;;9.25;;
61741;SDS011;47650;49.848;9.620;2023-03-23T08:00:35;13.43;;;7.85;;
61741;SDS011;47650;49.848;9.620;2023-03-23T08:03:04;13.95;;;7.72;;
61741;SDS011;47650;49.848;9.620;2023-03-23T08:05:32;13.38;;;8.25;;
61741;SDS011;47650;49.848;9.620;2023-03-23T08:07:58;14.60;;;9.85;;
61741;SDS011;47650;49.848;9.620;2023-03-23T08:10:24;16.88;;;10.65;;
61741;SDS011;47650;49.848;9.620;2023-03-23T08:12:52;10.40;;;9.25;;
61741;SDS011;47650;49.848;9.620;2023-03-23T08:15:19;11.90;;;9.00;;
61741;SDS011;47650;49.848;9.620;2023-03-23T08:17:46;11.07;;;6.50;;
61741;SDS011;47650;49.848;9.620;2023-03-23T08:20:12;10.05;;;7.25;;
61741;SDS011;47650;49.848;9.620;2023-03-23T08:22:39;10.73;;;8.65;;
61741;SDS011;47650;49.848;9.620;2023-03-23T08:25:06;10.48;;;9.25;;
61741;SDS011;47650;49.848;9.620;2023-03-23T08:27:33;11.10;;;7.10;;
61741;SDS011;47650;49.848;9.620;2023-03-23T08:29:59;6.97;;;3.72;;
61741;SDS011;47650;49.848;9.620;2023-03-23T08:32:26;11.30;;;4.90;;
61741;SDS011;47650;49.848;9.620;2023-03-23T08:34:53;8.45;;;4.53;;
61741;SDS011;47650;49.848;9.620;2023-03-23T08:37:29;6.47;;;4.65;;
61741;SDS011;47650;49.848;9.620;2023-03-23T08:39:55;8.60;;;4.68;;
61741;SDS011;47650;49.848;9.620;2023-03-23T08:42:24;4.63;;;3.45;;
61741;SDS011;47650;49.848;9.620;2023-03-23T08:44:57;5.82;;;3.03;;
61741;SDS011;47650;49.848;9.620;2023-03-23T08:49:56;5.03;;;3.00;;
61741;SDS011;47650;49.848;9.620;2023-03-23T08:52:23;4.20;;;2.95;;
61741;SDS011;47650;49.848;9.620;2023-03-23T08:54:50;4.57;;;2.90;;
61741;SDS011;47650;49.848;9.620;2023-03-23T08:57:16;3.65;;;2.42;;
61741;SDS011;47650;49.848;9.620;2023-03-23T08:59:43;3.95;;;1.98;;
61741;SDS011;47650;49.848;9.620;2023-03-23T09:02:12;3.28;;;2.35;;
61741;SDS011;47650;49.848;9.620;2023-03-23T09:04:38;2.10;;;1.55;;
61741;SDS011;47650;49.848;9.620;2023-03-23T09:07:08;2.10;;;1.40;;
61741;SDS011;47650;49.848;9.620;2023-03-23T09:09:39;2.55;;;1.90;;
61741;SDS011;47650;49.848;9.620;2023-03-23T09:12:06;4.10;;;1.80;;
61741;SDS011;47650;49.848;9.620;2023-03-23T09:14:32;1.90;;;1.15;;
61741;SDS011;47650;49.848;9.620;2023-03-23T09:16:58;2.00;;;1.33;;
61741;SDS011;47650;49.848;9.620;2023-03-23T09:19:24;2.13;;;1.30;;
61741;SDS011;47650;49.848;9.620;2023-03-23T09:21:49;3.25;;;1.67;;
61741;SDS011;47650;49.848;9.620;2023-03-23T09:24:15;1.25;;;1.15;;
61741;SDS011;47650;49.848;9.620;2023-03-23T09:26:40;1.73;;;1.40;;
61741;SDS011;47650;49.848;9.620;2023-03-23T09:29:06;1.63;;;1.23;;
61741;SDS011;47650;49.848;9.620;2023-03-23T09:31:31;1.55;;;1.10;;
61741;SDS011;47650;49.848;9.620;2023-03-23T09:33:57;1.73;;;1.25;;
61741;SDS011;47650;49.848;9.620;2023-03-23T09:36:24;1.85;;;1.27;;
61741;SDS011;47650;49.848;9.620;2023-03-23T09:38:50;1.98;;;1.20;;
61741;SDS011;47650;49.848;9.620;2023-03-23T09:44:18;2.15;;;0.95;;
61741;SDS011;47650;49.848;9.620;2023-03-23T09:47:25;1.80;;;1.05;;
61741;SDS011;47650;49.848;9.620;2023-03-23T09:49:59;2.55;;;1.23;;
61741;SDS011;47650;49.848;9.620;2023-03-23T09:52:36;3.03;;;1.30;;
61741;SDS011;47650;49.848;9.620;2023-03-23T09:55:04;2.05;;;1.27;;
61741;SDS011;47650;49.848;9.620;2023-03-23T09:57:32;1.23;;;1.05;;
61741;SDS011;47650;49.848;9.620;2023-03-23T10:02:55;3.13;;;1.50;;
61741;SDS011;47650;49.848;9.620;2023-03-23T10:05:26;2.63;;;1.45;;
61741;SDS011;47650;49.848;9.620;2023-03-23T10:07:56;3.47;;;1.60;;
61741;SDS011;47650;49.848;9.620;2023-03-23T10:10:23;2.58;;;1.50;;
61741;SDS011;47650;49.848;9.620;2023-03-23T10:13:23;1.88;;;1.30;;
61741;SDS011;47650;49.848;9.620;2023-03-23T10:16:07;2.05;;;1.42;;
61741;SDS011;47650;49.848;9.620;2023-03-23T10:21:21;1.95;;;1.50;;
61741;SDS011;47650;49.848;9.620;2023-03-23T10:23:53;2.67;;;1.80;;
61741;SDS011;47650;49.848;9.620;2023-03-23T10:28:54;3.22;;;1.33;;
61741;SDS011;47650;49.848;9.620;2023-03-23T10:31:28;2.93;;;1.13;;
61741;SDS011;47650;49.848;9.620;2023-03-23T10:33:59;3.08;;;1.48;;
61741;SDS011;47650;49.848;9.620;2023-03-23T10:39:32;2.83;;;1.45;;
61741;SDS011;47650;49.848;9.620;2023-03-23T10:42:08;2.20;;;1.27;;
61741;SDS011;47650;49.848;9.620;2023-03-23T10:44:34;1.05;;;0.85;;
61741;SDS011;47650;49.848;9.620;2023-03-23T10:47:01;2.25;;;1.55;;
61741;SDS011;47650;49.848;9.620;2023-03-23T10:52:13;1.00;;;0.90;;
61741;SDS011;47650;49.848;9.620;2023-03-23T10:54:45;1.65;;;1.23;;
61741;SDS011;47650;49.848;9.620;2023-03-23T10:57:22;1.92;;;1.00;;
61741;SDS011;47650;49.848;9.620;2023-03-23T10:59:49;2.15;;;1.30;;
61741;SDS011;47650;49.848;9.620;2023-03-23T11:02:16;1.45;;;1.20;;
61741;SDS011;47650;49.848;9.620;2023-03-23T11:07:31;1.38;;;0.90;;
61741;SDS011;47650;49.848;9.620;2023-03-23T11:10:05;1.05;;;0.98;;
61741;SDS011;47650;49.848;9.620;2023-03-23T11:12:43;2.28;;;1.00;;
61741;SDS011;47650;49.848;9.620;2023-03-23T11:17:55;0.90;;;0.90;;
61741;SDS011;47650;49.848;9.620;2023-03-23T11:20:25;1.55;;;1.15;;
61741;SDS011;47650;49.848;9.620;2023-03-23T11:22:53;1.30;;;1.00;;
61741;SDS011;47650;49.848;9.620;2023-03-23T11:25:20;2.13;;;1.10;;
61741;SDS011;47650;49.848;9.620;2023-03-23T11:27:46;2.53;;;0.90;;
61741;SDS011;47650;49.848;9.620;2023-03-23T11:30:23;3.25;;;1.25;;
61741;SDS011;47650;49.848;9.620;2023-03-23T11:32:52;1.90;;;1.30;;
61741;SDS011;47650;49.848;9.620;2023-03-23T11:35:21;1.33;;;0.88;;
61741;SDS011;47650;49.848;9.620;2023-03-23T11:37:57;3.70;;;1.23;;
61741;SDS011;47650;49.848;9.620;2023-03-23T11:40:25;2.78;;;1.60;;
61741;SDS011;47650;49.848;9.620;2023-03-23T11:58:56;1.38;;;1.10;;
61741;SDS011;47650;49.848;9.620;2023-03-23T12:01:27;1.92;;;1.40;;
61741;SDS011;47650;49.848;9.620;2023-03-23T12:07:03;2.17;;;1.17;;
61741;SDS011;47650;49.848;9.620;2023-03-23T12:23:33;2.40;;;1.80;;
61741;SDS011;47650;49.848;9.620;2023-03-23T12:31:27;2.03;;;1.30;;
61741;SDS011;47650;49.848;9.620;2023-03-23T12:34:26;2.65;;;1.83;;
61741;SDS011;47650;49.848;9.620;2023-03-23T12:39:42;2.78;;;1.60;;
61741;SDS011;47650;49.848;9.620;2023-03-23T12:45:18;2.40;;;1.90;;
61741;SDS011;47650;49.848;9.620;2023-03-23T12:50:59;2.63;;;1.70;;
61741;SDS011;47650;49.848;9.620;2023-03-23T12:53:36;3.75;;;2.05;;
61741;SDS011;47650;49.848;9.620;2023-03-23T12:58:49;2.85;;;1.65;;
61741;SDS011;47650;49.848;9.620;2023-03-23T13:01:28;3.13;;;2.03;;
61741;SDS011;47650;49.848;9.620;2023-03-23T13:03:59;2.80;;;1.75;;
61741;SDS011;47650;49.848;9.620;2023-03-23T13:06:41;3.23;;;1.53;;
61741;SDS011;47650;49.848;9.620;2023-03-23T13:11:58;2.40;;;1.73;;
61741;SDS011;47650;49.848;9.620;2023-03-23T13:14:31;2.83;;;1.83;;
61741;SDS011;47650;49.848;9.620;2023-03-23T13:19:53;3.45;;;1.58;;
61741;SDS011;47650;49.848;9.620;2023-03-23T13:22:39;2.00;;;1.20;;
61741;SDS011;47650;49.848;9.620;2023-03-23T13:25:15;2.97;;;1.10;;
61741;SDS011;47650;49.848;9.620;2023-03-23T13:27:44;2.60;;;0.93;;
61741;SDS011;47650;49.848;9.620;2023-03-23T13:30:21;1.02;;;0.90;;
61741;SDS011;47650;49.848;9.620;2023-03-23T13:32:51;0.80;;;0.80;;
61741;SDS011;47650;49.848;9.620;2023-03-23T13:35:38;1.40;;;0.88;;
61741;SDS011;47650;49.848;9.620;2023-03-23T13:38:44;1.85;;;0.90;;
61741;SDS011;47650;49.848;9.620;2023-03-23T13:40:58;0.70;;;0.70;;
61741;SDS011;47650;49.848;9.620;2023-03-23T13:43:34;1.63;;;0.70;;
61741;SDS011;47650;49.848;9.620;2023-03-23T13:48:39;0.82;;;0.70;;
61741;SDS011;47650;49.848;9.620;2023-03-23T13:56:58;2.65;;;0.68;;
61741;SDS011;47650;49.848;9.620;2023-03-23T13:59:33;1.58;;;0.82;;
61741;SDS011;47650;49.848;9.620;2023-03-23T14:02:28;0.80;;;0.80;;
61741;SDS011;47650;49.848;9.620;2023-03-23T14:07:54;1.27;;;0.90;;
61741;SDS011;47650;49.848;9.620;2023-03-23T14:13:28;0.93;;;0.80;;
61741;SDS011;47650;49.848;9.620;2023-03-23T14:18:50;0.90;;;0.77;;
61741;SDS011;47650;49.848;9.620;2023-03-23T14:21:40;0.98;;;0.90;;
61741;SDS011;47650;49.848;9.620;2023-03-23T14:24:21;1.65;;;0.75;;
61741;SDS011;47650;49.848;9.620;2023-03-23T14:27:16;1.95;;;0.90;;
61741;SDS011;47650;49.848;9.620;2023-03-23T14:29:42;0.98;;;0.90;;
61741;SDS011;47650;49.848;9.620;2023-03-23T14:32:14;1.02;;;0.77;;
61741;SDS011;47650;49.848;9.620;2023-03-23T14:34:46;2.95;;;1.27;;
61741;SDS011;47650;49.848;9.620;2023-03-23T14:37:13;4.22;;;1.40;;
61741;SDS011;47650;49.848;9.620;2023-03-23T14:39:44;2.47;;;1.20;;
61741;SDS011;47650;49.848;9.620;2023-03-23T14:42:14;1.15;;;1.02;;
61741;SDS011;47650;49.848;9.620;2023-03-23T14:44:46;1.88;;;1.10;;
61741;SDS011;47650;49.848;9.620;2023-03-23T14:47:48;2.58;;;1.52;;
61741;SDS011;47650;49.848;9.620;2023-03-23T14:53:21;1.33;;;1.10;;
61741;SDS011;47650;49.848;9.620;2023-03-23T14:56:06;1.83;;;1.10;;
61741;SDS011;47650;49.848;9.620;2023-03-23T14:58:43;1.30;;;0.93;;
61741;SDS011;47650;49.848;9.620;2023-03-23T15:01:10;2.90;;;1.20;;
61741;SDS011;47650;49.848;9.620;2023-03-23T15:03:43;1.20;;;1.05;;
61741;SDS011;47650;49.848;9.620;2023-03-23T15:06:18;3.47;;;1.50;;
61741;SDS011;47650;49.848;9.620;2023-03-23T15:08:46;2.13;;;1.40;;
61741;SDS011;47650;49.848;9.620;2023-03-23T15:13:45;2.00;;;1.70;;
61741;SDS011;47650;49.848;9.620;2023-03-23T15:16:32;2.90;;;1.40;;
61741;SDS011;47650;49.848;9.620;2023-03-23T15:19:04;1.38;;;1.27;;
61741;SDS011;47650;49.848;9.620;2023-03-23T15:21:35;11.93;;;8.45;;
61741;SDS011;47650;49.848;9.620;2023-03-23T15:27:14;16.08;;;10.02;;
61741;SDS011;47650;49.848;9.620;2023-03-23T15:30:15;10.70;;;8.15;;
61741;SDS011;47650;49.848;9.620;2023-03-23T15:33:02;5.65;;;3.80;;
61741;SDS011;47650;49.848;9.620;2023-03-23T15:35:36;2.10;;;1.52;;
61741;SDS011;47650;49.848;9.620;2023-03-23T15:38:05;2.67;;;1.67;;
61741;SDS011;47650;49.848;9.620;2023-03-23T15:40:40;3.25;;;1.70;;
61741;SDS011;47650;49.848;9.620;2023-03-23T15:45:56;2.75;;;1.70;;
61741;SDS011;47650;49.848;9.620;2023-03-23T15:48:48;4.65;;;1.67;;
61741;SDS011;47650;49.848;9.620;2023-03-23T15:51:36;3.53;;;1.75;;
61741;SDS011;47650;49.848;9.620;2023-03-23T15:54:07;3.45;;;1.33;;
61741;SDS011;47650;49.848;9.620;2023-03-23T15:56:38;1.80;;;1.50;;
61741;SDS011;47650;49.848;9.620;2023-03-23T15:59:03;3.53;;;1.70;;
61741;SDS011;47650;49.848;9.620;2023-03-23T16:01:33;1.42;;;1.30;;
61741;SDS011;47650;49.848;9.620;2023-03-23T16:04:09;2.08;;;1.58;;
61741;SDS011;47650;49.848;9.620;2023-03-23T16:06:43;2.05;;;1.50;;
61741;SDS011;47650;49.848;9.620;2023-03-23T16:09:12;2.90;;;1.42;;
61741;SDS011;47650;49.848;9.620;2023-03-23T16:11:41;3.42;;;1.83;;
61741;SDS011;47650;49.848;9.620;2023-03-23T16:14:07;2.13;;;1.33;;
61741;SDS011;47650;49.848;9.620;2023-03-23T16:16:49;2.13;;;1.52;;
61741;SDS011;47650;49.848;9.620;2023-03-23T16:19:19;5.43;;;1.85;;
61741;SDS011;47650;49.848;9.620;2023-03-23T16:21:52;5.65;;;1.67;;
61741;SDS011;47650;49.848;9.620;2023-03-23T16:24:18;1.92;;;1.40;;
61741;SDS011;47650;49.848;9.620;2023-03-23T16:26:43;2.40;;;1.55;;
61741;SDS011;47650;49.848;9.620;2023-03-23T16:29:14;3.15;;;1.50;;
61741;SDS011;47650;49.848;9.620;2023-03-23T16:31:47;2.60;;;1.67;;
61741;SDS011;47650;49.848;9.620;2023-03-23T16:34:13;2.70;;;1.83;;
61741;SDS011;47650;49.848;9.620;2023-03-23T16:36:39;2.58;;;1.50;;
61741;SDS011;47650;49.848;9.620;2023-03-23T16:39:08;3.85;;;1.55;;
61741;SDS011;47650;49.848;9.620;2023-03-23T16:41:37;2.88;;;1.75;;
61741;SDS011;47650;49.848;9.620;2023-03-23T16:44:02;2.45;;;1.45;;
61741;SDS011;47650;49.848;9.620;2023-03-23T16:46:28;2.47;;;1.70;;
61741;SDS011;47650;49.848;9.620;2023-03-23T16:48:54;2.03;;;1.70;;
61741;SDS011;47650;49.848;9.620;2023-03-23T16:51:19;2.25;;;1.52;;
61741;SDS011;47650;49.848;9.620;2023-03-23T16:53:46;2.50;;;1.60;;
61741;SDS011;47650;49.848;9.620;2023-03-23T16:56:12;2.13;;;1.60;;
61741;SDS011;47650;49.848;9.620;2023-03-23T16:58:40;2.30;;;1.63;;
61741;SDS011;47650;49.848;9.620;2023-03-23T17:01:06;3.20;;;1.80;;
61741;SDS011;47650;49.848;9.620;2023-03-23T17:03:31;2.00;;;1.58;;
61741;SDS011;47650;49.848;9.620;2023-03-23T17:05:59;3.15;;;1.95;;
61741;SDS011;47650;49.848;9.620;2023-03-23T17:08:25;2.47;;;1.92;;
61741;SDS011;47650;49.848;9.620;2023-03-23T17:10:52;2.50;;;1.85;;
61741;SDS011;47650;49.848;9.620;2023-03-23T17:13:18;2.28;;;1.65;;
61741;SDS011;47650;49.848;9.620;2023-03-23T17:15:45;3.28;;;1.95;;
61741;SDS011;47650;49.848;9.620;2023-03-23T17:18:13;2.30;;;1.60;;
61741;SDS011;47650;49.848;9.620;2023-03-23T17:20:41;2.53;;;1.67;;
61741;SDS011;47650;49.848;9.620;2023-03-23T17:23:07;2.70;;;1.58;;